ESMJ weather

Kågeröd Simmelsberga Airport
Kågeröd, Skåne län, Sweden

Public forecast

Using degrees Celsius for public forecast. Weather courtesy of forecast.io.

METAR (pilot weather report)

Closest report is Ljungbyhed Airport, 7.6 nm (14.0 km) NE. Retrieved 2019/07/23 06:20 UTC (0 seconds ago):

ESTL 230620Z AUTO 27010KT 8000 BR ///////// 18/18 Q1018 REDZ

TAF (pilot weather forecast)

Forecast is more than 12 hours old.

Closest forecast is Ljungbyhed Airport, 7.6 nm (14.0 km) NE. Retrieved 2016/03/01 09:33 UTC (3 years ago):

TAF ESTL 010830Z 0109/0124 14004KT 9999 SCT025